Date,TemperatureHighF,TemperatureAvgF,TemperatureLowF,DewpointHighF,DewpointAvgF,DewpointLowF,HumidityHigh,HumidityAvg,HumidityLow,PressureMaxIn,PressureMinIn,WindSpeedMaxMPH,WindSpeedAvgMPH,GustSpeedMaxMPH,PrecipitationSumIn
2013-2-1,8.8,6.2,3.6,3.9,1.2,-1.4,81,80,78,30.37,30.14,19,16,31,0.00
2013-2-5,29.8,26.7,17.8,28.6,24.1,16.4,97,90,76,30.10,29.90,13,6,19,0.00
2013-2-6,37.2,29.8,23.7,25.8,22.7,18.2,90,75,53,30.35,30.10,8,4,13,0.02
2013-2-7,43.2,34.0,28.0,33.7,29.0,24.7,97,82,68,30.28,29.86,10,4,16,0.11
2013-2-8,33.6,30.7,27.1,32.8,26.8,21.7,98,86,73,30.44,29.86,18,7,24,0.00
2013-2-9,34.4,27.5,20.8,26.2,22.6,17.8,95,82,69,30.50,30.27,13,5,16,0.00
2013-2-10,48.2,38.7,30.8,46.6,33.4,24.0,95,81,70,30.27,29.68,18,11,26,0.11
2013-2-11,49.2,36.4,30.2,47.0,29.6,23.0,93,76,70,30.06,29.65,28,19,50,0.34
2013-2-12,32.9,29.6,27.0,26.3,23.7,21.3,84,79,72,30.18,30.05,15,8,29,0.00
2013-2-13,43.1,35.7,22.6,31.4,28.4,21.4,95,76,59,29.93,29.81,12,6,18,0.00
2013-2-14,34.5,34.2,33.8,31.6,31.2,30.9,90,89,88,29.86,29.85,8,5,12,0.00
2013-2-15,31.6,26.5,22.2,26.6,20.3,16.4,93,78,60,30.25,30.10,14,4,20,0.00
2013-2-16,23.9,19.1,13.4,19.6,14.2,7.2,90,81,64,30.23,30.15,8,4,21,0.00
2013-2-17,27.5,20.2,11.9,16.1,11.8,9.3,90,71,48,30.33,30.22,10,5,14,0.00
2013-2-18,51.6,38.2,24.0,43.3,28.7,13.2,90,69,59,30.24,29.57,24,15,40,0.15
2013-2-19,44.7,21.3,14.2,42.5,17.2,8.8,93,84,76,30.17,29.53,24,18,39,0.27
2013-2-20,21.7,16.8,10.9,17.6,12.8,7.5,88,84,79,30.42,30.17,16,9,26,0.00
2013-2-21,26.2,23.0,19.6,20.6,18.4,15.4,88,82,77,30.47,30.17,13,6,21,0.00
2013-2-22,33.8,27.7,20.4,32.6,25.8,17.2,98,92,81,30.17,29.94,17,9,27,0.03
2013-2-23,29.0,26.6,24.8,24.2,21.3,19.0,87,80,68,30.05,29.99,14,10,24,0.00
2013-2-24,36.4,28.3,19.9,24.8,21.8,17.7,91,77,60,30.24,30.04,11,5,20,0.00
2013-2-25,40.2,32.7,25.5,29.7,26.2,22.0,90,77,61,30.28,30.08,8,4,12,0.00
2013-2-26,33.4,32.3,31.0,32.6,29.2,25.3,99,89,72,30.08,29.52,18,9,27,0.03
2013-2-27,32.1,32.1,32.0,31.9,31.8,31.8,99,99,99,29.54,29.52,1,0,3,0.00